Latest Weather Observations for Swan Hill

IDN60801

Issued at 12:32 pm EST Thursday 3 September 2015 (issued every 30 minutes, with the page automatically refreshed every 10 minutes)

About weather observations | Map of weather stations | Latest weather observations for NSW | Other Formats
Station Details ID: 077094 Name: SWAN HILL AERODROME Lat: -35.38 Lon: 143.54 Height: 71.0 m
Data from the previous 72 hours. | See also: Recent months at Swan Hill
Date/Time
EST
Temp
°C
App
Temp
°C
Dew
Point
Rel
Hum
%
Delta-T
°C
Wind Press
QNH
hPa
Press
MSL
hPa
Rain
since 9 am
mm
Dir
 
Spd
km/h
Gust
km/h
Spd
kts
Gust
kts
03/12:30pm 17.5 13.7 8.9 57 4.5 S 19 32 10 17 1014.8 1014.8 0.0
03/12:00pm 16.6 12.5 8.8 60 4.0 S 20 32 11 17 1014.7 1014.7 0.0
03/11:30am 15.5 11.5 9.2 66 3.2 SSW 20 33 11 18 1014.5 1014.5 0.0
03/11:00am 15.3 11.8 10.3 72 2.6 SSW 19 32 10 17 1014.3 1014.3 0.0
03/10:30am 14.9 11.3 8.4 65 3.3 SSW 17 26 9 14 1014.0 1014.0 0.0
03/10:00am 14.3 11.6 8.9 70 2.7 SSW 13 20 7 11 1013.7 1013.7 0.0
03/09:30am 13.2 10.8 10.0 81 1.7 S 13 20 7 11 1013.2 1013.2 0.0
03/09:00am 12.1 8.9 10.0 87 1.1 S 17 24 9 13 1012.6 1012.6 10.8
03/08:30am 10.9 8.8 9.7 92 0.6 S 11 19 6 10 1011.9 1011.9 10.8
03/08:06am 10.5 8.4 9.6 94 0.5 SSW 11 17 6 9 1011.6 1011.6 10.8
03/08:00am 10.4 8.2 9.5 94 0.5 SSW 11 19 6 10 1011.4 1011.4 10.8
03/07:30am 10.0 7.4 9.2 95 0.4 SSW 13 19 7 10 1010.4 1010.4 10.8
03/07:13am 9.7 7.0 8.9 95 0.4 SSW 13 19 7 10 1009.8 1009.8 10.8
03/07:00am 9.6 6.9 9.0 96 0.3 SSW 13 24 7 13 1009.5 1009.5 10.8
03/06:33am 9.1 5.9 8.5 96 0.3 SW 15 20 8 11 1008.9 1008.9 10.8
03/06:30am 9.0 5.8 8.4 96 0.3 SW 15 20 8 11 1008.8 1008.8 10.8
03/06:00am 8.5 4.8 7.9 96 0.3 WSW 17 22 9 12 1008.1 1008.1 10.8
03/05:42am 8.3 4.5 7.7 96 0.3 WSW 17 20 9 11 1007.8 1007.8 10.8
03/05:30am 8.2 4.4 7.6 96 0.3 WSW 17 22 9 12 1007.6 1007.6 10.8
03/05:14am 8.2 3.5 7.6 96 0.3 WSW 22 26 12 14 1007.4 1007.4 10.8
03/05:00am 8.4 4.7 7.8 96 0.3 WSW 17 22 9 12 1007.1 1007.1 10.8
03/04:34am 7.9 5.2 7.3 96 0.3 WSW 11 13 6 7 1006.9 1006.9 10.6
03/04:30am 7.7 4.9 7.1 96 0.3 WSW 11 15 6 8 1006.8 1006.8 10.6
03/04:25am 7.5 4.3 6.9 96 0.3 WSW 13 15 7 8 1006.7 1006.7 10.6
03/04:00am 7.3 3.7 6.7 96 0.3 WSW 15 19 8 10 1006.4 1006.4 10.6
03/03:30am 7.4 3.4 6.8 96 0.3 WSW 17 20 9 11 1006.1 1006.1 10.6
03/03:00am 7.1 3.1 6.5 96 0.3 WSW 17 22 9 12 1006.0 1006.0 10.6
03/02:30am 6.5 3.8 5.8 95 0.3 WSW 9 13 5 7 1006.2 1006.2 10.6
03/02:00am 7.0 5.0 6.3 95 0.3 WSW 6 9 3 5 1006.4 1006.4 10.6
03/01:30am 6.3 5.3 5.6 95 0.3 CALM 0 0 0 0 1006.4 1006.4 10.6
03/01:00am 6.8 4.2 6.1 95 0.3 WSW 9 9 5 5 1006.3 1006.3 10.6
03/12:30am 7.1 5.9 6.4 95 0.3 S 2 6 1 3 1006.3 1006.3 10.6
03/12:00am 6.7 4.0 5.8 94 0.4 NW 9 11 5 6 1006.2 1006.2 10.6
 
Date/Time
EST
Temp
°C
App
Temp
°C
Dew
Point
Rel
Hum
%
Delta-T
°C
Wind Press
QNH
hPa
Press
MSL
hPa
Rain
since 9 am
mm
Dir
 
Spd
km/h
Gust
km/h
Spd
kts
Gust
kts
02/11:30pm 7.0 6.1 6.1 94 0.4 CALM 0 0 0 0 1006.2 1006.2 10.6
02/11:00pm 7.8 5.9 6.9 94 0.4 NW 6 7 3 4 1006.0 1006.0 10.6
02/10:30pm 7.5 6.7 6.4 93 0.5 CALM 0 0 0 0 1005.8 1005.8 10.6
02/10:19pm 8.6 8.0 7.5 93 0.5 CALM 0 4 0 2 1005.8 1005.8 10.6
02/10:00pm 9.1 7.5 8.0 93 0.5 NW 6 7 3 4 1005.7 1005.7 10.6
02/09:55pm 9.2 7.4 8.1 93 0.5 NW 7 9 4 5 1005.7 1005.7 10.6
02/09:52pm 9.2 7.4 8.1 93 0.5 NW 7 11 4 6 1005.7 1005.7 10.6
02/09:30pm 10.3 8.5 9.4 94 0.5 NW 9 13 5 7 1005.6 1005.6 10.6
02/09:00pm 10.2 10.0 9.1 93 0.5 CALM 0 0 0 0 1005.5 1005.5 10.6
02/08:30pm 10.6 10.1 9.5 93 0.6 NNE 2 6 1 3 1005.1 1005.0 10.6
02/08:00pm 10.5 10.4 9.4 93 0.6 CALM 0 0 0 0 1005.2 1005.1 10.6
02/07:42pm 10.4 10.3 9.3 93 0.5 CALM 0 2 0 1 1005.2 1005.1 10.6
02/07:41pm 10.4 10.3 9.3 93 0.5 CALM 0 2 0 1 1005.2 1005.1 10.6
02/07:30pm 10.4 9.1 9.3 93 0.5 NNE 6 9 3 5 1005.1 1005.0 10.6
02/07:29pm 10.3 9.0 9.2 93 0.5 NNE 6 9 3 5 1005.1 1005.0 10.6
02/07:00pm 10.4 9.1 9.2 92 0.6 NNE 6 7 3 4 1005.2 1005.1 10.6
02/06:30pm 10.7 10.2 9.5 92 0.6 NNE 2 7 1 4 1004.9 1004.8 10.6
02/06:03pm 11.0 10.9 9.4 90 0.8 CALM 0 0 0 0 1005.0 1004.9 10.6
02/06:00pm 11.0 10.9 9.4 90 0.8 CALM 0 0 0 0 1004.9 1004.8 10.6
02/05:52pm 11.0 10.9 9.4 90 0.8 CALM 0 6 0 3 1004.9 1004.8 10.6
02/05:30pm 11.0 9.1 9.1 88 0.9 N 9 9 5 5 1005.4 1005.4 10.2
02/05:07pm 11.2 8.2 9.1 87 1.1 N 15 19 8 10 1005.4 1005.4 10.2
02/05:00pm 11.2 7.8 9.1 87 1.1 N 17 22 9 12 1005.2 1005.1 10.2
02/04:41pm 11.3 6.2 9.2 87 1.1 NW 26 35 14 19 1004.9 1004.8 10.2
02/04:30pm 11.2 7.3 9.3 88 1.0 NE 20 39 11 21 1003.8 1003.7 10.2
02/04:24pm 11.0 4.2 9.3 89 0.9 ENE 35 61 19 33 1002.8 1002.8 10.2
02/04:10pm 10.8 3.7 9.4 91 0.7 ENE 37 57 20 31 1001.6 1001.6 10.2
02/04:07pm 10.7 4.3 9.5 92 0.6 ENE 33 54 18 29 1002.7 1002.7 10.0
02/04:06pm 10.7 4.5 9.5 92 0.6 ENE 32 54 17 29 1002.9 1002.9 10.0
02/04:05pm 10.7 4.5 9.5 92 0.6 ENE 32 44 17 24 1002.8 1002.8 9.8
02/04:00pm 10.7 5.6 9.3 91 0.7 NE 26 35 14 19 1004.9 1004.8 9.4
02/03:44pm 10.9 7.5 9.3 90 0.8 NNE 17 22 9 12 1005.4 1005.4 7.6
02/03:30pm 11.2 7.5 9.5 89 0.9 NNW 19 26 10 14 1006.4 1006.4 5.8
02/03:13pm 11.4 7.7 9.5 88 1.0 NNW 19 26 10 14 1006.2 1006.2 4.6
02/03:02pm 11.5 6.9 9.8 89 0.9 NW 24 32 13 17 1006.8 1006.8 3.8
02/03:00pm 11.6 7.1 9.9 89 0.9 NW 24 32 13 17 1006.8 1006.8 3.6
02/02:30pm 12.4 9.7 10.5 88 1.0 NW 15 20 8 11 1006.2 1006.2 1.8
02/02:00pm 12.3 10.6 10.0 86 1.2 NE 9 11 5 6 1006.0 1006.0 1.2
02/01:30pm 12.8 9.8 9.1 78 1.9 NNE 15 19 8 10 1007.1 1007.1 0.4
02/01:00pm 12.7 10.5 9.5 81 1.6 ENE 11 15 6 8 1007.3 1007.3 0.4
02/12:30pm 12.6 9.0 8.3 75 2.1 NE 17 24 9 13 1007.5 1007.5 0.2
02/12:00pm 13.8 9.4 7.6 66 3.1 NE 20 26 11 14 1007.9 1007.9 0.0
02/11:30am 13.8 9.5 7.1 64 3.3 NE 19 28 10 15 1008.2 1008.2 0.0
02/11:00am 13.2 8.9 6.8 65 3.1 ENE 19 30 10 16 1008.6 1008.6 0.0
02/10:30am 12.6 8.2 7.3 70 2.6 NE 20 28 11 15 1009.3 1009.3 0.0
02/10:00am 12.7 8.6 6.3 65 3.1 NE 17 26 9 14 1009.9 1009.9 0.0
02/09:30am 12.4 8.7 6.2 66 2.9 NE 15 22 8 12 1010.5 1010.5 0.0
02/09:00am 11.8 8.0 5.9 67 2.8 ENE 15 20 8 11 1010.4 1010.4 0.0
02/08:30am 11.4 8.4 5.9 69 2.6 NNE 11 15 6 8 1010.9 1010.9 0.0
02/08:00am 11.4 7.1 5.1 65 2.9 NE 17 20 9 11 1010.6 1010.6 0.0
02/07:30am 11.3 7.0 5.2 66 2.8 ENE 17 22 9 12 1010.5 1010.5 0.0
02/07:00am 10.9 6.9 5.0 67 2.7 ENE 15 20 8 11 1010.6 1010.6 0.0
02/06:30am 10.2 6.6 5.0 70 2.4 ENE 13 20 7 11 1010.5 1010.5 0.0
02/06:00am 9.7 6.5 4.9 72 2.2 NE 11 13 6 7 1011.2 1011.2 0.0
02/05:30am 10.4 7.5 4.5 67 2.6 ENE 9 13 5 7 1011.2 1011.2 0.0
02/05:00am 10.1 6.8 4.7 69 2.4 NE 11 15 6 8 1011.4 1011.4 0.0
02/04:30am 10.6 6.8 3.9 63 3.0 ENE 13 17 7 9 1011.3 1011.3 0.0
02/04:00am 10.8 7.4 3.8 62 3.1 NE 11 15 6 8 1011.4 1011.4 0.0
02/03:30am 11.1 7.2 3.6 60 3.3 ENE 13 17 7 9 1011.4 1011.4 0.0
02/03:00am 11.5 7.2 3.5 58 3.5 ENE 15 22 8 12 1011.6 1011.6 0.0
02/02:30am 11.3 7.1 3.8 60 3.3 NE 15 20 8 11 1012.1 1012.1 0.0
02/02:00am 11.8 7.2 3.8 58 3.6 NE 17 24 9 13 1012.2 1012.2 0.0
02/01:30am 11.7 7.1 3.7 58 3.6 NE 17 20 9 11 1012.5 1012.5 0.0
02/01:00am 11.8 7.6 3.6 57 3.7 NE 15 20 8 11 1012.8 1012.8 0.0
02/12:30am 12.2 7.5 3.4 55 3.9 NNE 17 22 9 12 1012.9 1012.9 0.0
02/12:00am 12.2 7.5 3.4 55 3.9 NNE 17 22 9 12 1013.0 1013.0 0.0
 
Date/Time
EST
Temp
°C
App
Temp
°C
Dew
Point
Rel
Hum
%
Delta-T
°C
Wind Press
QNH
hPa
Press
MSL
hPa
Rain
since 9 am
mm
Dir
 
Spd
km/h
Gust
km/h
Spd
kts
Gust
kts
01/11:30pm 11.9 6.9 3.4 56 3.8 NNE 19 24 10 13 1013.1 1013.1 0.0
01/11:00pm 11.0 6.7 3.5 60 3.3 NE 15 19 8 10 1013.2 1013.2 0.0
01/10:30pm 11.5 6.8 3.3 57 3.6 NE 17 24 9 13 1013.2 1013.2 0.0
01/10:00pm 11.0 6.3 3.3 59 3.4 NE 17 20 9 11 1013.3 1013.3 0.0
01/09:30pm 10.8 6.5 3.4 60 3.3 NE 15 17 8 9 1013.4 1013.4 0.0
01/09:00pm 11.0 6.7 3.1 58 3.5 NE 15 17 8 9 1013.6 1013.6 0.0
01/08:30pm 11.5 6.8 3.0 56 3.7 NE 17 20 9 11 1013.3 1013.3 0.0
01/08:00pm 11.5 7.1 2.8 55 3.8 NE 15 17 8 9 1013.3 1013.3 0.0
01/07:30pm 12.0 7.6 2.5 52 4.1 NE 15 17 8 9 1013.0 1013.0 0.0
01/07:00pm 13.0 8.9 2.0 47 4.8 NE 13 17 7 9 1012.9 1012.9 0.0
01/06:30pm 13.9 9.7 1.5 43 5.4 NE 13 15 7 8 1012.7 1012.7 0.0
01/06:00pm 15.2 11.5 2.1 41 5.8 NE 11 13 6 7 1012.4 1012.4 0.0
01/05:30pm 16.7 13.4 2.3 38 6.5 NE 9 13 5 7 1012.3 1012.3 0.0
01/05:00pm 18.5 14.3 1.9 33 7.6 NE 13 17 7 9 1012.3 1012.3 0.0
01/04:30pm 18.6 14.6 0.7 30 7.9 N 11 17 6 9 1012.4 1012.4 0.0
01/04:00pm 19.0 14.6 0.6 29 8.2 NE 13 22 7 12 1012.6 1012.6 0.0
01/03:30pm 19.4 15.4 0.4 28 8.4 NNE 11 17 6 9 1012.8 1012.8 0.0
01/03:00pm 19.3 15.3 0.4 28 8.4 NE 11 19 6 10 1013.0 1013.0 0.0
01/02:30pm 19.6 15.8 1.6 30 8.2 NE 11 17 6 9 1013.3 1013.3 0.0
01/02:00pm 19.5 16.4 1.5 30 8.2 NNE 7 13 4 7 1013.7 1013.7 0.0
01/01:30pm 19.1 15.1 0.7 29 8.2 NW 11 19 6 10 1014.2 1014.2 0.0
01/01:00pm 18.9 14.2 1.0 30 8.0 NNW 15 22 8 12 1014.7 1014.7 0.0
01/12:30pm 18.4 14.4 3.1 36 7.1 NNW 13 20 7 11 1015.5 1015.5 0.0
01/12:00pm 17.7 13.2 2.1 35 7.1 NNW 15 22 8 12 1016.1 1016.1 0.0
01/11:30am 16.7 12.4 3.0 40 6.3 N 15 22 8 12 1016.5 1016.5 0.0
01/11:00am 15.7 11.7 4.7 48 5.2 NNE 15 19 8 10 1016.7 1016.7 0.0
01/10:30am 13.5 9.7 3.8 52 4.4 NE 13 17 7 9 1016.7 1016.7 0.0
01/10:00am 13.2 10.5 5.4 59 3.7 NE 9 13 5 7 1017.1 1017.2 0.0
01/09:30am 10.6 8.1 4.7 67 2.7 NE 7 11 4 6 1017.5 1017.6 0.0
01/09:00am 8.3 4.9 3.8 73 1.9 SE 11 15 6 8 1017.7 1017.8 0.0
01/08:30am 6.1 3.3 2.9 80 1.3 SW 7 11 4 6 1017.7 1017.8 0.0
01/08:00am 3.5 1.8 1.7 88 0.7 CALM 0 0 0 0 1017.7 1017.8 0.0
01/07:30am 0.2 -1.9 -1.1 91 0.5 CALM 0 0 0 0 1017.6 1017.7 0.0
01/07:00am -1.0 -3.3 -2.4 90 0.4 CALM 0 0 0 0 1017.4 1017.5 0.0
01/06:30am -1.1 -3.4 -2.5 90 0.4 CALM 0 4 0 2 1017.2 1017.3 0.0
01/06:00am -0.9 -4.5 -2.3 90 0.4 SW 7 7 4 4 1017.0 1017.1 0.0
01/05:30am -0.7 -3.0 -2.1 90 0.4 CALM 0 0 0 0 1016.9 1017.0 0.0
01/05:00am -0.9 -3.2 -2.5 89 0.5 CALM 0 0 0 0 1016.7 1016.8 0.0
01/04:30am -0.6 -3.6 -2.2 89 0.5 SW 4 7 2 4 1016.6 1016.7 0.0
01/04:00am -0.6 -4.6 -2.5 87 0.6 SW 9 9 5 5 1016.6 1016.7 0.0
01/03:30am 0.1 -2.1 -1.8 87 0.7 CALM 0 0 0 0 1017.1 1017.2 0.0
01/03:00am 0.5 -1.7 -1.4 87 0.7 CALM 0 0 0 0 1017.1 1017.2 0.0
01/02:30am 0.6 -1.6 -1.3 87 0.7 CALM 0 0 0 0 1017.4 1017.5 0.0
01/02:00am 1.1 -2.4 -1.1 85 0.8 SW 7 9 4 5 1017.7 1017.8 0.0
01/01:30am 1.8 -1.6 -0.6 84 0.9 SW 7 9 4 5 1018.0 1018.1 0.0
01/01:00am 1.9 -0.9 -0.5 84 0.9 SW 4 7 2 4 1018.3 1018.3 0.0
01/12:30am 1.3 -1.2 -1.1 84 0.9 SW 2 7 1 4 1018.4 1018.4 0.0
01/12:00am 2.2 -1.6 -0.7 81 1.0 SW 9 15 5 8 1018.2 1018.2 0.0
 
Date/Time
EST
Temp
°C
App
Temp
°C
Dew
Point
Rel
Hum
%
Delta-T
°C
Wind Press
QNH
hPa
Press
MSL
hPa
Rain
since 9 am
mm
Dir
 
Spd
km/h
Gust
km/h
Spd
kts
Gust
kts
31/11:30pm 1.4 -0.8 -1.2 83 0.9 CALM 0 0 0 0 1018.6 1018.6 0.0
31/11:00pm 3.8 0.2 0.7 80 1.2 SW 9 11 5 6 1018.7 1018.7 0.0
31/10:30pm 3.6 0.3 0.1 78 1.3 SW 7 9 4 5 1018.9 1019.0 0.0
31/10:00pm 3.7 0.6 0.1 77 1.4 SW 6 9 3 5 1019.1 1019.2 0.0
31/09:30pm 4.1 0.8 0.3 76 1.4 SW 7 9 4 5 1019.0 1019.1 0.0
31/09:00pm 4.9 2.3 0.7 74 1.6 SW 4 7 2 4 1018.9 1019.0 0.0
31/08:30pm 6.3 2.8 1.0 69 2.1 SW 9 15 5 8 1018.9 1019.0 0.0
31/08:00pm 6.9 3.4 1.0 66 2.4 SSW 9 11 5 6 1018.7 1018.7 0.0
31/07:30pm 8.3 4.8 1.0 60 3.0 SSW 9 11 5 6 1018.5 1018.5 0.0
31/07:00pm 10.0 6.6 1.6 56 3.5 SSW 9 11 5 6 1018.3 1018.3 0.0
31/06:30pm 10.4 7.0 2.0 56 3.6 SSW 9 11 5 6 1018.2 1018.2 0.0
31/06:00pm 12.4 9.1 2.3 50 4.4 SSW 9 11 5 6 1017.9 1018.0 0.0
31/05:30pm 13.9 10.1 1.9 44 5.2 SSW 11 13 6 7 1017.9 1018.0 0.0
31/05:00pm 14.5 10.8 2.1 43 5.5 SSW 11 19 6 10 1017.7 1017.8 0.0
31/04:30pm 14.9 10.8 2.1 42 5.7 SW 13 20 7 11 1017.8 1017.9 0.0
31/04:00pm 15.3 11.2 2.5 42 5.7 SW 13 22 7 12 1018.0 1018.1 0.0
31/03:30pm 15.1 10.2 2.0 41 5.8 WSW 17 26 9 14 1018.3 1018.3 0.0
31/03:00pm 15.0 9.8 2.5 43 5.6 WSW 19 26 10 14 1018.4 1018.4 0.0
31/02:30pm 14.6 9.4 2.5 44 5.4 SW 19 30 10 16 1018.7 1018.7 0.0
31/02:00pm 14.4 9.0 2.6 45 5.2 WSW 20 30 11 16 1019.1 1019.2 0.0
31/01:30pm 13.9 9.2 3.4 49 4.7 WSW 17 24 9 13 1019.4 1019.5 0.0
31/01:00pm 13.9 9.1 2.5 46 5.0 SW 17 24 9 13 1019.9 1020.0 0.0

Other Formats:

Comma delimited format used in spreadsheet applications
http://www.bom.gov.au/fwo/IDN60801/IDN60801.94843.axf

JavaScript Object Notation format (JSON) in row-major order
http://www.bom.gov.au/fwo/IDN60801/IDN60801.94843.json